LNG Abalamabie — ZCER3 — position and weather

sailwx.info

Track history (hours):
 
Tides and Currents Weather Stations Pressure Air Temp Water Temp Dewpoint Dewpoint Depression Visibility Wind Speed Wind Dir Waves Ship Positions

LNG Abalamabie

Last reported at 2018-Jun-12 10:01 UTC. Time now 2018-Jun-19 04:48 UTC.
Position S 33°47' E 017°29'.

Length 292 m; draft 9.6 m.

Type: Ship (hazmat cat D). MMSI: 310731000.

Date/timePositionNaut miles runAvg speedWind from/ knotsBaromVisibWave heightAir tempDewpointWater temp
2018-Jun-12 10:01S 33°47' E 017°29'013.1
2018-Jun-12 10:00S 33°47' E 017°29'713.4
2018-Jun-12 09:30S 33°54' E 017°32'713.0
2018-Jun-12 09:00S 33°60' E 017°35'712.7
2018-Jun-12 08:28S 34°06' E 017°38'612.6
2018-Jun-12 08:00S 34°11' E 017°40'612.0
2018-Jun-12 07:30S 34°17' E 017°42'612.0
2018-Jun-12 07:00S 34°23' E 017°44'611.9
2018-Jun-12 06:30S 34°29' E 017°46'612.2
2018-Jun-12 06:00S 34°34' E 017°50'612.8
2018-Jun-12 05:30S 34°40' E 017°52'713.1
2018-Jun-12 05:00S 34°43' E 017°59'714.3
2018-Jun-12 04:30S 34°46' E 018°08'714.1
2018-Jun-12 04:00S 34°48' E 018°16'713.8
2018-Jun-12 03:29S 34°50' E 018°24'713.5
2018-Jun-12 03:00S 34°52' E 018°31'713.2
2018-Jun-12 02:30S 34°54' E 018°39'713.4
2018-Jun-12 02:00S 34°56' E 018°47'713.4
2018-Jun-12 01:30S 34°58' E 018°55'713.3
2018-Jun-12 01:00S 34°60' E 019°02'713.4
2018-Jun-12 00:30S 35°02' E 019°10'713.2
2018-Jun-12 00:00S 35°04' E 019°18'713.3
2018-Jun-11 23:30S 35°06' E 019°26'61612.9
2018-Jun-09 23:52S 32°58' E 031°32'412.4
2018-Jun-09 23:30S 32°56' E 031°37'2112.0
2018-Jun-09 21:45S 32°47' E 031°60'311.6
2018-Jun-09 21:29S 32°46' E 032°03'611.6
2018-Jun-09 21:00S 32°43' E 032°09'611.6
2018-Jun-09 20:30S 32°41' E 032°15'611.5
2018-Jun-09 20:00S 32°38' E 032°21'611.4
2018-Jun-09 19:30S 32°36' E 032°27'611.1
2018-Jun-09 19:00S 32°34' E 032°34'611.2
2018-Jun-09 18:30S 32°31' E 032°40'611.0
2018-Jun-09 18:00S 32°29' E 032°46'511.1
2018-Jun-09 17:30S 32°27' E 032°52'611.4
2018-Jun-09 17:00S 32°25' E 032°58'611.5
2018-Jun-09 16:30S 32°22' E 033°04'611.6
2018-Jun-09 16:00S 32°20' E 033°10'1111.5
2018-Jun-09 15:00S 32°15' E 033°22'611.7
2018-Jun-09 14:29S 32°12' E 033°29'612.1
2018-Jun-09 14:00S 32°09' E 033°35'712.3
2018-Jun-09 13:28S 32°07' E 033°42'1512.4
2018-Jun-09 12:15S 31°60' E 033°58'312.6
2018-Jun-09 12:00S 31°58' E 034°01'712.3
2018-Jun-09 11:29S 31°55' E 034°08'612.2
2018-Jun-09 11:00S 31°53' E 034°14'612.5
2018-Jun-09 10:30S 31°50' E 034°21'612.4
2018-Jun-09 10:00S 31°48' E 034°28'612.5
2018-Jun-09 09:29S 31°45' E 034°34'1512.7
2018-Jun-09 08:17S 31°41' E 034°52'413.4
2018-Jun-09 08:00S 31°40' E 034°56'713.5
2018-Jun-09 07:30S 31°38' E 035°04'611.8
2018-Jun-09 07:00S 31°35' E 035°09'713.2
2018-Jun-09 06:30S 31°29' E 035°11'612.0
2018-Jun-09 05:59S 31°23' E 035°13'613.1
2018-Jun-09 05:30S 31°20' E 035°19'713.4
2018-Jun-09 04:59S 31°16' E 035°26'713.6
2018-Jun-09 04:30S 31°13' E 035°33'913.8
2018-Jun-09 03:51S 31°09' E 035°42'813.9
2018-Jun-09 03:15S 31°05' E 035°51'413.9
2018-Jun-09 02:56S 31°03' E 035°55'613.9
2018-Jun-09 02:30S 30°60' E 036°02'713.9
2018-Jun-09 02:00S 30°57' E 036°09'814.1
2018-Jun-09 01:28S 30°53' E 036°17'  
Track history (hours):
 
Tides and Currents Weather Stations Pressure Air Temp Water Temp Dewpoint Dewpoint Depression Visibility Wind Speed Wind Dir Waves Ship Positions

LNG Abalamabie

Last reported at 2018-Jun-12 10:01 UTC. Time now 2018-Jun-19 04:48 UTC.
Position S 33°47' E 017°29'.

Length 292 m; draft 9.6 m.

Type: Ship (hazmat cat D). MMSI: 310731000.

Date/timePositionNaut miles runAvg speedWind from/ knotsBaromVisibWave heightAir tempDewpointWater temp
2018-Jun-12 10:01S 33°47' E 017°29'013.1
2018-Jun-12 10:00S 33°47' E 017°29'713.4
2018-Jun-12 09:30S 33°54' E 017°32'713.0
2018-Jun-12 09:00S 33°60' E 017°35'712.7
2018-Jun-12 08:28S 34°06' E 017°38'612.6
2018-Jun-12 08:00S 34°11' E 017°40'612.0
2018-Jun-12 07:30S 34°17' E 017°42'612.0
2018-Jun-12 07:00S 34°23' E 017°44'611.9
2018-Jun-12 06:30S 34°29' E 017°46'612.2
2018-Jun-12 06:00S 34°34' E 017°50'612.8
2018-Jun-12 05:30S 34°40' E 017°52'713.1
2018-Jun-12 05:00S 34°43' E 017°59'714.3
2018-Jun-12 04:30S 34°46' E 018°08'714.1
2018-Jun-12 04:00S 34°48' E 018°16'713.8
2018-Jun-12 03:29S 34°50' E 018°24'713.5
2018-Jun-12 03:00S 34°52' E 018°31'713.2
2018-Jun-12 02:30S 34°54' E 018°39'713.4
2018-Jun-12 02:00S 34°56' E 018°47'713.4
2018-Jun-12 01:30S 34°58' E 018°55'713.3
2018-Jun-12 01:00S 34°60' E 019°02'713.4
2018-Jun-12 00:30S 35°02' E 019°10'713.2
2018-Jun-12 00:00S 35°04' E 019°18'713.3
2018-Jun-11 23:30S 35°06' E 019°26'61612.9
2018-Jun-09 23:52S 32°58' E 031°32'412.4
2018-Jun-09 23:30S 32°56' E 031°37'2112.0
2018-Jun-09 21:45S 32°47' E 031°60'311.6
2018-Jun-09 21:29S 32°46' E 032°03'611.6
2018-Jun-09 21:00S 32°43' E 032°09'611.6
2018-Jun-09 20:30S 32°41' E 032°15'611.5
2018-Jun-09 20:00S 32°38' E 032°21'611.4
2018-Jun-09 19:30S 32°36' E 032°27'611.1
2018-Jun-09 19:00S 32°34' E 032°34'611.2
2018-Jun-09 18:30S 32°31' E 032°40'611.0
2018-Jun-09 18:00S 32°29' E 032°46'511.1
2018-Jun-09 17:30S 32°27' E 032°52'611.4
2018-Jun-09 17:00S 32°25' E 032°58'611.5
2018-Jun-09 16:30S 32°22' E 033°04'611.6
2018-Jun-09 16:00S 32°20' E 033°10'1111.5
2018-Jun-09 15:00S 32°15' E 033°22'611.7
2018-Jun-09 14:29S 32°12' E 033°29'612.1
2018-Jun-09 14:00S 32°09' E 033°35'712.3
2018-Jun-09 13:28S 32°07' E 033°42'1512.4
2018-Jun-09 12:15S 31°60' E 033°58'312.6
2018-Jun-09 12:00S 31°58' E 034°01'712.3
2018-Jun-09 11:29S 31°55' E 034°08'612.2
2018-Jun-09 11:00S 31°53' E 034°14'612.5
2018-Jun-09 10:30S 31°50' E 034°21'612.4
2018-Jun-09 10:00S 31°48' E 034°28'612.5
2018-Jun-09 09:29S 31°45' E 034°34'1512.7
2018-Jun-09 08:17S 31°41' E 034°52'413.4
2018-Jun-09 08:00S 31°40' E 034°56'713.5
2018-Jun-09 07:30S 31°38' E 035°04'611.8
2018-Jun-09 07:00S 31°35' E 035°09'713.2
2018-Jun-09 06:30S 31°29' E 035°11'612.0
2018-Jun-09 05:59S 31°23' E 035°13'613.1
2018-Jun-09 05:30S 31°20' E 035°19'713.4
2018-Jun-09 04:59S 31°16' E 035°26'713.6
2018-Jun-09 04:30S 31°13' E 035°33'913.8
2018-Jun-09 03:51S 31°09' E 035°42'813.9
2018-Jun-09 03:15S 31°05' E 035°51'413.9
2018-Jun-09 02:56S 31°03' E 035°55'613.9
2018-Jun-09 02:30S 30°60' E 036°02'713.9
2018-Jun-09 02:00S 30°57' E 036°09'814.1
2018-Jun-09 01:28S 30°53' E 036°17'  

Dump ship's entire track history